Flinterborg — PHPH — position and weather

sailwx.info

Track history (hours):
 
Tides and Currents Weather Stations Pressure Air Temp Water Temp Dewpoint Dewpoint Depression Visibility Wind Speed Wind Dir Waves Ship Positions

Flinterborg

Last reported at 2017-Sep-22 02:00 UTC. Time now 2017-Sep-23 11:19 UTC.
Position N 39°06' W 010°05'.

Length 111 m; draft 6.2 m.

Type: Cargo ship. MMSI: 245433000.

Date/timePositionNaut miles runAvg speedWind from/ knotsBaromVisibWave heightAir tempDewpointWater temp
2017-Sep-22 02:00N 39°06' W 010°05'510.3
2017-Sep-22 01:30N 39°11' W 010°05'510.8
2017-Sep-22 01:00N 39°16' W 010°05'  
2017-Sep-19 08:40N 49°30' W 004°08'611.7
2017-Sep-19 08:10N 49°33' W 004°00'211.4
2017-Sep-19 08:00N 49°34' W 003°57'611.0
2017-Sep-19 07:29N 49°37' W 003°50'510.6
2017-Sep-19 07:00N 49°40' W 003°43'510.0
2017-Sep-19 06:28N 49°42' W 003°36'4 9.6
2017-Sep-19 06:00N 49°44' W 003°30'5 9.0
2017-Sep-19 05:30N 49°47' W 003°24'4 8.9
2017-Sep-19 05:00N 49°49' W 003°18'5 9.0
2017-Sep-19 04:30N 49°51' W 003°12'6 9.3
2017-Sep-19 03:53N 49°54' W 003°04'4 9.9
2017-Sep-19 03:30N 49°56' W 002°59'510.4
2017-Sep-19 03:00N 49°58' W 002°52'8312.1
2017-Sep-18 20:07N 50°23' W 000°48'15 7.9
2017-Sep-18 18:15N 50°27' W 000°25'2 9.0
2017-Sep-18 18:00N 50°28' W 000°22'5 9.4
2017-Sep-18 17:30N 50°29' W 000°15'510.3
2017-Sep-18 17:00N 50°31' W 000°08'510.9
2017-Sep-18 16:30N 50°32' E 000°01'611.5
2017-Sep-18 16:00N 50°34' E 000°09'612.0
2017-Sep-18 15:30N 50°36' E 000°18'612.3
2017-Sep-18 15:00N 50°37' E 000°28'612.3
2017-Sep-18 14:30N 50°40' E 000°37'612.0
2017-Sep-18 14:00N 50°43' E 000°45'611.6
2017-Sep-18 13:30N 50°46' E 000°52'611.1
2017-Sep-18 12:58N 50°50' E 000°60'1410.1
2017-Sep-18 11:36N 50°59' E 001°17'2 9.0
2017-Sep-18 11:23N 50°60' E 001°19'3 8.7
2017-Sep-18 10:59N 51°02' E 001°23'4 8.8
2017-Sep-18 10:30N 51°05' E 001°28'5 9.4
2017-Sep-18 10:00N 51°08' E 001°34'5 9.8
2017-Sep-18 09:30N 51°11' E 001°40'510.3
2017-Sep-18 09:00N 51°14' E 001°46'611.4
2017-Sep-18 08:30N 51°19' E 001°52'612.4
2017-Sep-18 08:00N 51°24' E 001°58'5 9.8
2017-Sep-18 07:30N 51°23' E 002°06'510.6
2017-Sep-18 07:00N 51°21' E 002°14'611.4
2017-Sep-18 06:30N 51°21' E 002°23'612.1
2017-Sep-18 06:00N 51°22' E 002°32'611.8
2017-Sep-18 05:30N 51°22' E 002°42'510.0
2017-Sep-18 04:59N 51°22' E 002°50'612.0
2017-Sep-18 04:30N 51°24' E 002°59'611.8
2017-Sep-18 04:00N 51°24' E 003°08'713.0
2017-Sep-18 03:30N 51°24' E 003°19'713.3
2017-Sep-18 03:00N 51°25' E 003°29'611.6
2017-Sep-18 02:28N 51°25' E 003°39'612.9
2017-Sep-18 02:00N 51°21' E 003°47'2 4.2
2017-Sep-18 01:30N 51°20' E 003°49'3 5.1
2017-Sep-18 01:00N 51°17' E 003°50'4 7.3
2017-Sep-18 00:30N 51°14' E 003°48'3 6.4
2017-Sep-18 00:00N 51°11' E 003°48'0 0.0
2017-Sep-17 23:27N 51°11' E 003°48'0 0.0
2017-Sep-17 23:00N 51°11' E 003°48'0 0.0
2017-Sep-17 22:30N 51°11' E 003°48'0 0.0
2017-Sep-17 22:00N 51°11' E 003°48'0 0.0
2017-Sep-17 21:30N 51°11' E 003°48'0 0.0
2017-Sep-17 20:56N 51°11' E 003°48'0 0.0
2017-Sep-17 20:29N 51°11' E 003°48'0 0.0
2017-Sep-17 19:59N 51°11' E 003°48'0 0.0
2017-Sep-17 19:29N 51°11' E 003°48'0 0.0
2017-Sep-17 18:53N 51°11' E 003°48'0 0.0
2017-Sep-17 18:22N 51°11' E 003°48'0 0.0
2017-Sep-17 17:58N 51°11' E 003°48'0 0.0
2017-Sep-17 17:25N 51°11' E 003°48'0 0.0
2017-Sep-17 16:55N 51°11' E 003°48'0 0.0
2017-Sep-17 16:30N 51°11' E 003°48'0 0.0
2017-Sep-17 16:00N 51°11' E 003°48'0 0.0
2017-Sep-17 15:30N 51°11' E 003°48'0 0.0
2017-Sep-17 14:54N 51°11' E 003°48'0 0.0
2017-Sep-17 14:30N 51°11' E 003°48'0 0.0
2017-Sep-17 13:56N 51°11' E 003°48'0 0.0
2017-Sep-17 13:29N 51°11' E 003°48'0 0.0
2017-Sep-17 12:59N 51°11' E 003°48'0 0.0
2017-Sep-17 12:29N 51°11' E 003°48'0 0.0
2017-Sep-17 11:58N 51°11' E 003°48'0 0.0
2017-Sep-17 11:28N 51°11' E 003°48'0 0.0
2017-Sep-17 10:52N 51°11' E 003°48'0 0.0
2017-Sep-17 10:28N 51°11' E 003°48'0 0.0
2017-Sep-17 09:55N 51°11' E 003°48'0 0.0
2017-Sep-17 09:25N 51°11' E 003°48'0 0.0
2017-Sep-17 09:00N 51°11' E 003°48'0 0.0
2017-Sep-17 08:30N 51°11' E 003°48'0 0.0
2017-Sep-17 07:57N 51°11' E 003°48'0 0.0
2017-Sep-17 07:30N 51°11' E 003°48'0 0.0
2017-Sep-17 06:59N 51°11' E 003°48'0 0.0
2017-Sep-17 06:29N 51°11' E 003°48'0 0.0
2017-Sep-17 05:56N 51°11' E 003°48'0 0.0
2017-Sep-17 05:29N 51°11' E 003°48'0 0.0
2017-Sep-17 04:58N 51°11' E 003°48'0 0.0
2017-Sep-17 04:25N 51°11' E 003°48'0 0.0
2017-Sep-17 03:58N 51°11' E 003°48'0 0.0
2017-Sep-17 03:28N 51°11' E 003°48'0 0.0
2017-Sep-17 02:58N 51°11' E 003°48'0 0.0
2017-Sep-17 02:30N 51°11' E 003°48'0 0.0
2017-Sep-17 02:00N 51°11' E 003°48'0 0.0
2017-Sep-17 01:27N 51°11' E 003°48'0 0.0
2017-Sep-17 01:00N 51°11' E 003°48'0 0.0
2017-Sep-17 00:30N 51°11' E 003°48'0 0.0
2017-Sep-16 23:59N 51°11' E 003°48'0 0.0
2017-Sep-16 23:26N 51°11' E 003°48'0 0.0
2017-Sep-16 22:59N 51°11' E 003°48'0 0.0
2017-Sep-16 22:29N 51°11' E 003°48'0 0.0
2017-Sep-16 21:58N 51°11' E 003°48'0 0.0
2017-Sep-16 21:25N 51°11' E 003°48'0 0.0
2017-Sep-16 20:52N 51°11' E 003°48'0 0.0
2017-Sep-16 20:28N 51°11' E 003°48'0 0.0
2017-Sep-16 19:58N 51°11' E 003°48'0 0.0
2017-Sep-16 19:31N 51°11' E 003°48'1 2.9
2017-Sep-16 19:00N 51°09' E 003°47'0 0.0
2017-Sep-16 18:28N 51°09' E 003°47'0 0.0
2017-Sep-16 17:58N 51°09' E 003°47'0 0.0
2017-Sep-16 17:27N 51°09' E 003°47'0 0.0
2017-Sep-16 16:57N 51°09' E 003°47'0 0.0
2017-Sep-16 16:24N 51°09' E 003°47'0 0.0
2017-Sep-16 15:57N 51°09' E 003°47'0 0.0
2017-Sep-16 15:30N 51°09' E 003°47'0 0.0
2017-Sep-16 14:59N 51°09' E 003°47'0 0.0
2017-Sep-16 14:29N 51°09' E 003°47'0 0.0
2017-Sep-16 13:59N 51°09' E 003°47'0 0.0
2017-Sep-16 13:29N 51°09' E 003°47'0 0.0
2017-Sep-16 12:58N 51°09' E 003°47'0 0.0
2017-Sep-16 12:28N 51°09' E 003°47'0 0.0
2017-Sep-16 11:55N 51°09' E 003°47'0 0.0
2017-Sep-16 11:28N 51°09' E 003°47'0 0.0
2017-Sep-16 10:57N 51°09' E 003°47'0 0.0
2017-Sep-16 10:30N 51°09' E 003°47'0 0.0
2017-Sep-16 10:00N 51°09' E 003°47'0 0.0
2017-Sep-16 09:30N 51°09' E 003°47'0 0.0
2017-Sep-16 09:00N 51°09' E 003°47'0 0.0
2017-Sep-16 08:29N 51°09' E 003°47'0 0.0
2017-Sep-16 07:59N 51°09' E 003°47'0 0.0
2017-Sep-16 07:29N 51°09' E 003°47'0 0.0
2017-Sep-16 06:59N 51°09' E 003°47'0 0.0
2017-Sep-16 06:29N 51°09' E 003°47'0 0.0
2017-Sep-16 05:58N 51°09' E 003°47'0 0.0
2017-Sep-16 05:28N 51°09' E 003°47'0 0.0
2017-Sep-16 04:58N 51°09' E 003°47'0 0.0
2017-Sep-16 04:28N 51°09' E 003°47'0 0.0
2017-Sep-16 03:48N 51°09' E 003°47'0 0.0
2017-Sep-16 03:27N 51°09' E 003°47'0 0.0
2017-Sep-16 03:00N 51°09' E 003°47'0 0.0
2017-Sep-16 02:30N 51°09' E 003°47'0 0.0
2017-Sep-16 02:00N 51°09' E 003°47'0 0.0
2017-Sep-16 01:26N 51°09' E 003°47'0 0.0
2017-Sep-16 00:59N 51°09' E 003°47'0 0.0
2017-Sep-16 00:26N 51°09' E 003°47'0 0.0
2017-Sep-15 23:59N 51°09' E 003°47'0 0.0
2017-Sep-15 23:26N 51°09' E 003°47'0 0.0
2017-Sep-15 22:58N 51°09' E 003°47'0 0.0
2017-Sep-15 22:22N 51°09' E 003°47'0 0.0
2017-Sep-15 21:55N 51°09' E 003°47'0 0.0
2017-Sep-15 21:22N 51°09' E 003°47'0 0.0
2017-Sep-15 21:00N 51°09' E 003°47'0 0.0
2017-Sep-15 20:30N 51°09' E 003°47'0 0.0
2017-Sep-15 19:57N 51°09' E 003°47'0 0.0
2017-Sep-15 19:30N 51°09' E 003°47'0 0.0
2017-Sep-15 19:00N 51°09' E 003°47'0 0.0
2017-Sep-15 18:29N 51°09' E 003°47'0 0.0
2017-Sep-15 17:59N 51°09' E 003°47'0 0.0
2017-Sep-15 17:26N 51°09' E 003°47'0 0.0
2017-Sep-15 16:59N 51°09' E 003°47'0 0.0
2017-Sep-15 16:22N 51°09' E 003°47'0 0.0
2017-Sep-15 15:58N 51°09' E 003°47'0 0.0
2017-Sep-15 15:28N 51°09' E 003°47'0 0.0
2017-Sep-15 14:58N 51°09' E 003°47'0 0.0
2017-Sep-15 14:22N 51°09' E 003°47'0 0.0
2017-Sep-15 13:58N 51°09' E 003°47'0 0.0
2017-Sep-15 13:30N 51°09' E 003°47'0 0.0
2017-Sep-15 12:57N 51°09' E 003°47'0 0.0
2017-Sep-15 12:30N 51°09' E 003°47'0 0.0
2017-Sep-15 12:00N 51°09' E 003°47'0 0.0
2017-Sep-15 11:29N 51°09' E 003°47'0 0.0
2017-Sep-15 10:59N 51°09' E 003°47'0 0.0
2017-Sep-15 10:29N 51°09' E 003°47'0 0.0
2017-Sep-15 09:56N 51°09' E 003°47'0 0.0
2017-Sep-15 09:29N 51°09' E 003°47'0 0.0
2017-Sep-15 08:58N 51°09' E 003°47'0 0.0
2017-Sep-15 08:28N 51°09' E 003°47'0 0.0
2017-Sep-15 07:58N 51°09' E 003°47'0 0.0
2017-Sep-15 07:28N 51°09' E 003°47'0 0.0
2017-Sep-15 07:00N 51°09' E 003°47'0 0.0
2017-Sep-15 06:30N 51°09' E 003°47'0 0.0
2017-Sep-15 06:00N 51°09' E 003°47'0 0.0
2017-Sep-15 05:27N 51°09' E 003°47'0 0.0
2017-Sep-15 05:00N 51°09' E 003°47'0 0.0
2017-Sep-15 04:29N 51°09' E 003°47'0 0.0
2017-Sep-15 03:59N 51°09' E 003°47'0 0.0
2017-Sep-15 03:29N 51°09' E 003°47'0 0.0
2017-Sep-15 02:59N 51°09' E 003°47'0 0.0
2017-Sep-15 02:26N 51°09' E 003°47'0 0.0
2017-Sep-15 01:55N 51°09' E 003°47'0 0.0
2017-Sep-15 01:19N 51°09' E 003°47'0 0.0
2017-Sep-15 00:58N 51°09' E 003°47'0 0.0
2017-Sep-15 00:25N 51°09' E 003°47'0 0.0
2017-Sep-15 00:00N 51°09' E 003°47'0 0.0
2017-Sep-14 23:30N 51°09' E 003°47'0 0.0
2017-Sep-14 22:54N 51°09' E 003°47'0 0.0
2017-Sep-14 22:30N 51°09' E 003°47'0 0.0
2017-Sep-14 22:00N 51°09' E 003°47'0 0.0
2017-Sep-14 21:29N 51°09' E 003°47'0 0.0
2017-Sep-14 20:59N 51°09' E 003°47'0 0.0
2017-Sep-14 20:29N 51°09' E 003°47'0 0.0
2017-Sep-14 19:59N 51°09' E 003°47'0 0.0
2017-Sep-14 19:29N 51°09' E 003°47'0 0.0
2017-Sep-14 18:58N 51°09' E 003°47'0 0.0
2017-Sep-14 18:28N 51°09' E 003°47'0 0.0
2017-Sep-14 17:55N 51°09' E 003°47'0 0.0
2017-Sep-14 17:22N 51°09' E 003°47'0 0.0
2017-Sep-14 17:00N 51°09' E 003°47'0 0.0
2017-Sep-14 16:30N 51°09' E 003°47'0 0.0
2017-Sep-14 16:00N 51°09' E 003°47'0 0.0
2017-Sep-14 15:30N 51°09' E 003°47'0 0.0
2017-Sep-14 14:59N 51°09' E 003°47'0 0.0
2017-Sep-14 14:29N 51°09' E 003°47'0 0.0
2017-Sep-14 13:59N 51°09' E 003°47'0 0.0
2017-Sep-14 13:26N 51°09' E 003°47'0 0.0
2017-Sep-14 12:59N 51°09' E 003°47'0 0.0
2017-Sep-14 12:28N 51°09' E 003°47'0 0.0
2017-Sep-14 11:58N 51°09' E 003°47'0 0.0
2017-Sep-14 11:25N 51°09' E 003°47'0 0.0
2017-Sep-14 10:52N 51°09' E 003°47'0 0.0
2017-Sep-14 10:28N 51°09' E 003°47'0 0.0
2017-Sep-14 10:00N 51°09' E 003°47'0 0.0
2017-Sep-14 09:27N 51°09' E 003°47'0 0.0
2017-Sep-14 09:00N 51°09' E 003°47'0 0.0
2017-Sep-14 08:30N 51°09' E 003°47'0 0.0
2017-Sep-14 08:00N 51°09' E 003°47'0 0.0
2017-Sep-14 07:26N 51°09' E 003°47'0 0.0
2017-Sep-14 06:59N 51°09' E 003°47'0 0.0
2017-Sep-14 06:29N 51°09' E 003°47'0 0.0
2017-Sep-14 05:59N 51°09' E 003°47'0 0.0
2017-Sep-14 05:25N 51°09' E 003°47'0 0.0
2017-Sep-14 04:58N 51°09' E 003°47'0 0.0
2017-Sep-14 04:28N 51°09' E 003°47'0 0.0
2017-Sep-14 03:58N 51°09' E 003°47'0 0.0
2017-Sep-14 03:25N 51°09' E 003°47'0 0.0
2017-Sep-14 03:00N 51°09' E 003°47'0 0.0
2017-Sep-14 02:30N 51°09' E 003°47'0 0.0
2017-Sep-14 01:57N 51°09' E 003°47'0 0.0
2017-Sep-14 01:27N 51°09' E 003°47'0 0.0
2017-Sep-14 00:59N 51°09' E 003°47'0 0.0
2017-Sep-14 00:26N 51°09' E 003°47'0 0.0
2017-Sep-13 23:59N 51°09' E 003°47'0 0.0
2017-Sep-13 23:29N 51°09' E 003°47'0 0.0
2017-Sep-13 22:59N 51°09' E 003°47'0 0.0
2017-Sep-13 22:28N 51°09' E 003°47'0 0.0
2017-Sep-13 21:55N 51°09' E 003°47'0 0.0
2017-Sep-13 21:28N 51°09' E 003°47'0 0.0
2017-Sep-13 20:58N 51°09' E 003°47'0 0.0
2017-Sep-13 20:31N 51°09' E 003°47'0 0.0
2017-Sep-13 20:00N 51°09' E 003°47'0 0.0
2017-Sep-13 19:27N 51°09' E 003°47'0 0.0
2017-Sep-13 18:54N 51°09' E 003°47'0 0.0
2017-Sep-13 18:30N 51°09' E 003°47'0 0.0
2017-Sep-13 18:00N 51°09' E 003°47'0 0.0
2017-Sep-13 17:29N 51°09' E 003°47'0 0.0
2017-Sep-13 16:59N 51°09' E 003°47'0 0.0
2017-Sep-13 16:29N 51°09' E 003°47'0 0.0
2017-Sep-13 15:59N 51°09' E 003°47'0 0.0
2017-Sep-13 15:28N 51°09' E 003°47'0 0.0
2017-Sep-13 14:58N 51°09' E 003°47'0 0.0
2017-Sep-13 14:28N 51°09' E 003°47'0 0.0
2017-Sep-13 13:58N 51°09' E 003°47'0 0.0
2017-Sep-13 13:30N 51°09' E 003°47'0 0.0
2017-Sep-13 13:00N 51°09' E 003°47'0 0.0
2017-Sep-13 12:30N 51°09' E 003°47'0 0.0
2017-Sep-13 11:57N 51°09' E 003°47'0 0.0
2017-Sep-13 11:30N 51°09' E 003°47'0 0.0
2017-Sep-13 11:00N 51°09' E 003°47'0 0.1
2017-Sep-13 10:31N 51°09' E 003°47'1 1.2
2017-Sep-13 10:00N 51°10' E 003°47'0 0.0
2017-Sep-13 09:29N 51°10' E 003°47'0 0.0
2017-Sep-13 08:59N 51°10' E 003°47'0 0.0
2017-Sep-13 08:28N 51°10' E 003°47'0 0.0
2017-Sep-13 07:55N 51°10' E 003°47'0 0.0
2017-Sep-13 07:25N 51°10' E 003°47'0 0.0
2017-Sep-13 06:58N 51°10' E 003°47'0 0.0
2017-Sep-13 06:25N 51°10' E 003°47'0 0.0
2017-Sep-13 06:01N 51°10' E 003°47'0 0.0
2017-Sep-13 05:30N 51°10' E 003°47'0 0.0
2017-Sep-13 05:00N 51°10' E 003°47'0 0.0
2017-Sep-13 04:30N 51°10' E 003°47'0 0.0
2017-Sep-13 04:00N 51°10' E 003°47'0 0.0
2017-Sep-13 03:29N 51°10' E 003°47'0 0.0
2017-Sep-13 02:59N 51°10' E 003°47'0 0.0
2017-Sep-13 02:29N 51°10' E 003°47'0 0.0
2017-Sep-13 01:59N 51°10' E 003°47'0 0.0
2017-Sep-13 01:29N 51°10' E 003°47'0 0.0
2017-Sep-13 00:58N 51°10' E 003°47'0 0.0
2017-Sep-13 00:28N 51°10' E 003°47'0 0.0
2017-Sep-12 23:58N 51°10' E 003°47'0 0.0
2017-Sep-12 23:28N 51°10' E 003°47'0 0.0
2017-Sep-12 23:00N 51°10' E 003°47'0 0.0
2017-Sep-12 22:27N 51°10' E 003°47'0 0.0
2017-Sep-12 21:57N 51°10' E 003°47'0 0.0
2017-Sep-12 21:24N 51°10' E 003°47'0 0.0
2017-Sep-12 20:57N 51°10' E 003°47'0 0.0
2017-Sep-12 20:29N 51°10' E 003°47'0 0.0
2017-Sep-12 19:56N 51°10' E 003°47'0 0.0
2017-Sep-12 19:26N 51°10' E 003°47'0 0.0
2017-Sep-12 18:56N 51°10' E 003°47'0 0.0
2017-Sep-12 18:25N 51°10' E 003°47'0 0.0
2017-Sep-12 17:55N 51°10' E 003°47'0 0.0
2017-Sep-12 17:13N 51°10' E 003°47'0 0.0
2017-Sep-12 16:58N 51°10' E 003°47'0 0.0
2017-Sep-12 16:25N 51°10' E 003°47'0 0.0
2017-Sep-12 16:00N 51°10' E 003°47'0 0.0
2017-Sep-12 15:24N 51°10' E 003°47'0 0.0
2017-Sep-12 15:00N 51°10' E 003°47'0 0.0
2017-Sep-12 14:30N 51°10' E 003°47'0 0.0
2017-Sep-12 13:56N 51°10' E 003°47'0 0.0
2017-Sep-12 13:29N 51°10' E 003°47'0 0.0
2017-Sep-12 12:56N 51°10' E 003°47'0 0.0
2017-Sep-12 12:29N 51°10' E 003°47'0 0.0
2017-Sep-12 11:59N 51°10' E 003°47'0 0.0
2017-Sep-12 11:28N 51°10' E 003°47'0 0.0
2017-Sep-12 10:58N 51°10' E 003°47'0 0.0
2017-Sep-12 10:28N 51°10' E 003°47'0 0.0
2017-Sep-12 09:58N 51°10' E 003°47'0 0.0
2017-Sep-12 09:28N 51°10' E 003°47'0 0.0
2017-Sep-12 08:54N 51°10' E 003°47'0 0.0
2017-Sep-12 08:27N 51°10' E 003°47'0 0.0
2017-Sep-12 08:00N 51°10' E 003°47'0 0.0
2017-Sep-12 07:27N 51°10' E 003°47'0 0.0
2017-Sep-12 06:56N 51°10' E 003°47'0 0.0
2017-Sep-12 06:26N 51°10' E 003°47'0 0.0
2017-Sep-12 05:53N 51°10' E 003°47'0 0.0
2017-Sep-12 05:29N 51°10' E 003°47'0 0.0
2017-Sep-12 05:00N 51°10' E 003°47'2 4.2
2017-Sep-12 04:30N 51°12' E 003°48'4 7.6
2017-Sep-12 04:00N 51°16' E 003°50'3 6.8
2017-Sep-12 03:30N 51°19' E 003°50'1 2.2
2017-Sep-12 02:58N 51°20' E 003°49'1 2.4
2017-Sep-12 02:30N 51°21' E 003°48'  
Track history (hours):
 
Tides and Currents Weather Stations Pressure Air Temp Water Temp Dewpoint Dewpoint Depression Visibility Wind Speed Wind Dir Waves Ship Positions

Flinterborg

Last reported at 2017-Sep-22 02:00 UTC. Time now 2017-Sep-23 11:19 UTC.
Position N 39°06' W 010°05'.

Length 111 m; draft 6.2 m.

Type: Cargo ship. MMSI: 245433000.

Date/timePositionNaut miles runAvg speedWind from/ knotsBaromVisibWave heightAir tempDewpointWater temp
2017-Sep-22 02:00N 39°06' W 010°05'510.3
2017-Sep-22 01:30N 39°11' W 010°05'510.8
2017-Sep-22 01:00N 39°16' W 010°05'  
2017-Sep-19 08:40N 49°30' W 004°08'611.7
2017-Sep-19 08:10N 49°33' W 004°00'211.4
2017-Sep-19 08:00N 49°34' W 003°57'611.0
2017-Sep-19 07:29N 49°37' W 003°50'510.6
2017-Sep-19 07:00N 49°40' W 003°43'510.0
2017-Sep-19 06:28N 49°42' W 003°36'4 9.6
2017-Sep-19 06:00N 49°44' W 003°30'5 9.0
2017-Sep-19 05:30N 49°47' W 003°24'4 8.9
2017-Sep-19 05:00N 49°49' W 003°18'5 9.0
2017-Sep-19 04:30N 49°51' W 003°12'6 9.3
2017-Sep-19 03:53N 49°54' W 003°04'4 9.9
2017-Sep-19 03:30N 49°56' W 002°59'510.4
2017-Sep-19 03:00N 49°58' W 002°52'8312.1
2017-Sep-18 20:07N 50°23' W 000°48'15 7.9
2017-Sep-18 18:15N 50°27' W 000°25'2 9.0
2017-Sep-18 18:00N 50°28' W 000°22'5 9.4
2017-Sep-18 17:30N 50°29' W 000°15'510.3
2017-Sep-18 17:00N 50°31' W 000°08'510.9
2017-Sep-18 16:30N 50°32' E 000°01'611.5
2017-Sep-18 16:00N 50°34' E 000°09'612.0
2017-Sep-18 15:30N 50°36' E 000°18'612.3
2017-Sep-18 15:00N 50°37' E 000°28'612.3
2017-Sep-18 14:30N 50°40' E 000°37'612.0
2017-Sep-18 14:00N 50°43' E 000°45'611.6
2017-Sep-18 13:30N 50°46' E 000°52'611.1
2017-Sep-18 12:58N 50°50' E 000°60'1410.1
2017-Sep-18 11:36N 50°59' E 001°17'2 9.0
2017-Sep-18 11:23N 50°60' E 001°19'3 8.7
2017-Sep-18 10:59N 51°02' E 001°23'4 8.8
2017-Sep-18 10:30N 51°05' E 001°28'5 9.4
2017-Sep-18 10:00N 51°08' E 001°34'5 9.8
2017-Sep-18 09:30N 51°11' E 001°40'510.3
2017-Sep-18 09:00N 51°14' E 001°46'611.4
2017-Sep-18 08:30N 51°19' E 001°52'612.4
2017-Sep-18 08:00N 51°24' E 001°58'5 9.8
2017-Sep-18 07:30N 51°23' E 002°06'510.6
2017-Sep-18 07:00N 51°21' E 002°14'611.4
2017-Sep-18 06:30N 51°21' E 002°23'612.1
2017-Sep-18 06:00N 51°22' E 002°32'611.8
2017-Sep-18 05:30N 51°22' E 002°42'510.0
2017-Sep-18 04:59N 51°22' E 002°50'612.0
2017-Sep-18 04:30N 51°24' E 002°59'611.8
2017-Sep-18 04:00N 51°24' E 003°08'713.0
2017-Sep-18 03:30N 51°24' E 003°19'713.3
2017-Sep-18 03:00N 51°25' E 003°29'611.6
2017-Sep-18 02:28N 51°25' E 003°39'612.9
2017-Sep-18 02:00N 51°21' E 003°47'2 4.2
2017-Sep-18 01:30N 51°20' E 003°49'3 5.1
2017-Sep-18 01:00N 51°17' E 003°50'4 7.3
2017-Sep-18 00:30N 51°14' E 003°48'3 6.4
2017-Sep-18 00:00N 51°11' E 003°48'0 0.0
2017-Sep-17 23:27N 51°11' E 003°48'0 0.0
2017-Sep-17 23:00N 51°11' E 003°48'0 0.0
2017-Sep-17 22:30N 51°11' E 003°48'0 0.0
2017-Sep-17 22:00N 51°11' E 003°48'0 0.0
2017-Sep-17 21:30N 51°11' E 003°48'0 0.0
2017-Sep-17 20:56N 51°11' E 003°48'0 0.0
2017-Sep-17 20:29N 51°11' E 003°48'0 0.0
2017-Sep-17 19:59N 51°11' E 003°48'0 0.0
2017-Sep-17 19:29N 51°11' E 003°48'0 0.0
2017-Sep-17 18:53N 51°11' E 003°48'0 0.0
2017-Sep-17 18:22N 51°11' E 003°48'0 0.0
2017-Sep-17 17:58N 51°11' E 003°48'0 0.0
2017-Sep-17 17:25N 51°11' E 003°48'0 0.0
2017-Sep-17 16:55N 51°11' E 003°48'0 0.0
2017-Sep-17 16:30N 51°11' E 003°48'0 0.0
2017-Sep-17 16:00N 51°11' E 003°48'0 0.0
2017-Sep-17 15:30N 51°11' E 003°48'0 0.0
2017-Sep-17 14:54N 51°11' E 003°48'0 0.0
2017-Sep-17 14:30N 51°11' E 003°48'0 0.0
2017-Sep-17 13:56N 51°11' E 003°48'0 0.0
2017-Sep-17 13:29N 51°11' E 003°48'0 0.0
2017-Sep-17 12:59N 51°11' E 003°48'0 0.0
2017-Sep-17 12:29N 51°11' E 003°48'0 0.0
2017-Sep-17 11:58N 51°11' E 003°48'0 0.0
2017-Sep-17 11:28N 51°11' E 003°48'0 0.0
2017-Sep-17 10:52N 51°11' E 003°48'0 0.0
2017-Sep-17 10:28N 51°11' E 003°48'0 0.0
2017-Sep-17 09:55N 51°11' E 003°48'0 0.0
2017-Sep-17 09:25N 51°11' E 003°48'0 0.0
2017-Sep-17 09:00N 51°11' E 003°48'0 0.0
2017-Sep-17 08:30N 51°11' E 003°48'0 0.0
2017-Sep-17 07:57N 51°11' E 003°48'0 0.0
2017-Sep-17 07:30N 51°11' E 003°48'0 0.0
2017-Sep-17 06:59N 51°11' E 003°48'0 0.0
2017-Sep-17 06:29N 51°11' E 003°48'0 0.0
2017-Sep-17 05:56N 51°11' E 003°48'0 0.0
2017-Sep-17 05:29N 51°11' E 003°48'0 0.0
2017-Sep-17 04:58N 51°11' E 003°48'0 0.0
2017-Sep-17 04:25N 51°11' E 003°48'0 0.0
2017-Sep-17 03:58N 51°11' E 003°48'0 0.0
2017-Sep-17 03:28N 51°11' E 003°48'0 0.0
2017-Sep-17 02:58N 51°11' E 003°48'0 0.0
2017-Sep-17 02:30N 51°11' E 003°48'0 0.0
2017-Sep-17 02:00N 51°11' E 003°48'0 0.0
2017-Sep-17 01:27N 51°11' E 003°48'0 0.0
2017-Sep-17 01:00N 51°11' E 003°48'0 0.0
2017-Sep-17 00:30N 51°11' E 003°48'0 0.0
2017-Sep-16 23:59N 51°11' E 003°48'0 0.0
2017-Sep-16 23:26N 51°11' E 003°48'0 0.0
2017-Sep-16 22:59N 51°11' E 003°48'0 0.0
2017-Sep-16 22:29N 51°11' E 003°48'0 0.0
2017-Sep-16 21:58N 51°11' E 003°48'0 0.0
2017-Sep-16 21:25N 51°11' E 003°48'0 0.0
2017-Sep-16 20:52N 51°11' E 003°48'0 0.0
2017-Sep-16 20:28N 51°11' E 003°48'0 0.0
2017-Sep-16 19:58N 51°11' E 003°48'0 0.0
2017-Sep-16 19:31N 51°11' E 003°48'1 2.9
2017-Sep-16 19:00N 51°09' E 003°47'0 0.0
2017-Sep-16 18:28N 51°09' E 003°47'0 0.0
2017-Sep-16 17:58N 51°09' E 003°47'0 0.0
2017-Sep-16 17:27N 51°09' E 003°47'0 0.0
2017-Sep-16 16:57N 51°09' E 003°47'0 0.0
2017-Sep-16 16:24N 51°09' E 003°47'0 0.0
2017-Sep-16 15:57N 51°09' E 003°47'0 0.0
2017-Sep-16 15:30N 51°09' E 003°47'0 0.0
2017-Sep-16 14:59N 51°09' E 003°47'0 0.0
2017-Sep-16 14:29N 51°09' E 003°47'0 0.0
2017-Sep-16 13:59N 51°09' E 003°47'0 0.0
2017-Sep-16 13:29N 51°09' E 003°47'0 0.0
2017-Sep-16 12:58N 51°09' E 003°47'0 0.0
2017-Sep-16 12:28N 51°09' E 003°47'0 0.0
2017-Sep-16 11:55N 51°09' E 003°47'0 0.0
2017-Sep-16 11:28N 51°09' E 003°47'0 0.0
2017-Sep-16 10:57N 51°09' E 003°47'0 0.0
2017-Sep-16 10:30N 51°09' E 003°47'0 0.0
2017-Sep-16 10:00N 51°09' E 003°47'0 0.0
2017-Sep-16 09:30N 51°09' E 003°47'0 0.0
2017-Sep-16 09:00N 51°09' E 003°47'0 0.0
2017-Sep-16 08:29N 51°09' E 003°47'0 0.0
2017-Sep-16 07:59N 51°09' E 003°47'0 0.0
2017-Sep-16 07:29N 51°09' E 003°47'0 0.0
2017-Sep-16 06:59N 51°09' E 003°47'0 0.0
2017-Sep-16 06:29N 51°09' E 003°47'0 0.0
2017-Sep-16 05:58N 51°09' E 003°47'0 0.0
2017-Sep-16 05:28N 51°09' E 003°47'0 0.0
2017-Sep-16 04:58N 51°09' E 003°47'0 0.0
2017-Sep-16 04:28N 51°09' E 003°47'0 0.0
2017-Sep-16 03:48N 51°09' E 003°47'0 0.0
2017-Sep-16 03:27N 51°09' E 003°47'0 0.0
2017-Sep-16 03:00N 51°09' E 003°47'0 0.0
2017-Sep-16 02:30N 51°09' E 003°47'0 0.0
2017-Sep-16 02:00N 51°09' E 003°47'0 0.0
2017-Sep-16 01:26N 51°09' E 003°47'0 0.0
2017-Sep-16 00:59N 51°09' E 003°47'0 0.0
2017-Sep-16 00:26N 51°09' E 003°47'0 0.0
2017-Sep-15 23:59N 51°09' E 003°47'0 0.0
2017-Sep-15 23:26N 51°09' E 003°47'0 0.0
2017-Sep-15 22:58N 51°09' E 003°47'0 0.0
2017-Sep-15 22:22N 51°09' E 003°47'0 0.0
2017-Sep-15 21:55N 51°09' E 003°47'0 0.0
2017-Sep-15 21:22N 51°09' E 003°47'0 0.0
2017-Sep-15 21:00N 51°09' E 003°47'0 0.0
2017-Sep-15 20:30N 51°09' E 003°47'0 0.0
2017-Sep-15 19:57N 51°09' E 003°47'0 0.0
2017-Sep-15 19:30N 51°09' E 003°47'0 0.0
2017-Sep-15 19:00N 51°09' E 003°47'0 0.0
2017-Sep-15 18:29N 51°09' E 003°47'0 0.0
2017-Sep-15 17:59N 51°09' E 003°47'0 0.0
2017-Sep-15 17:26N 51°09' E 003°47'0 0.0
2017-Sep-15 16:59N 51°09' E 003°47'0 0.0
2017-Sep-15 16:22N 51°09' E 003°47'0 0.0
2017-Sep-15 15:58N 51°09' E 003°47'0 0.0
2017-Sep-15 15:28N 51°09' E 003°47'0 0.0
2017-Sep-15 14:58N 51°09' E 003°47'0 0.0
2017-Sep-15 14:22N 51°09' E 003°47'0 0.0
2017-Sep-15 13:58N 51°09' E 003°47'0 0.0
2017-Sep-15 13:30N 51°09' E 003°47'0 0.0
2017-Sep-15 12:57N 51°09' E 003°47'0 0.0
2017-Sep-15 12:30N 51°09' E 003°47'0 0.0
2017-Sep-15 12:00N 51°09' E 003°47'0 0.0
2017-Sep-15 11:29N 51°09' E 003°47'0 0.0
2017-Sep-15 10:59N 51°09' E 003°47'0 0.0
2017-Sep-15 10:29N 51°09' E 003°47'0 0.0
2017-Sep-15 09:56N 51°09' E 003°47'0 0.0
2017-Sep-15 09:29N 51°09' E 003°47'0 0.0
2017-Sep-15 08:58N 51°09' E 003°47'0 0.0
2017-Sep-15 08:28N 51°09' E 003°47'0 0.0
2017-Sep-15 07:58N 51°09' E 003°47'0 0.0
2017-Sep-15 07:28N 51°09' E 003°47'0 0.0
2017-Sep-15 07:00N 51°09' E 003°47'0 0.0
2017-Sep-15 06:30N 51°09' E 003°47'0 0.0
2017-Sep-15 06:00N 51°09' E 003°47'0 0.0
2017-Sep-15 05:27N 51°09' E 003°47'0 0.0
2017-Sep-15 05:00N 51°09' E 003°47'0 0.0
2017-Sep-15 04:29N 51°09' E 003°47'0 0.0
2017-Sep-15 03:59N 51°09' E 003°47'0 0.0
2017-Sep-15 03:29N 51°09' E 003°47'0 0.0
2017-Sep-15 02:59N 51°09' E 003°47'0 0.0
2017-Sep-15 02:26N 51°09' E 003°47'0 0.0
2017-Sep-15 01:55N 51°09' E 003°47'0 0.0
2017-Sep-15 01:19N 51°09' E 003°47'0 0.0
2017-Sep-15 00:58N 51°09' E 003°47'0 0.0
2017-Sep-15 00:25N 51°09' E 003°47'0 0.0
2017-Sep-15 00:00N 51°09' E 003°47'0 0.0
2017-Sep-14 23:30N 51°09' E 003°47'0 0.0
2017-Sep-14 22:54N 51°09' E 003°47'0 0.0
2017-Sep-14 22:30N 51°09' E 003°47'0 0.0
2017-Sep-14 22:00N 51°09' E 003°47'0 0.0
2017-Sep-14 21:29N 51°09' E 003°47'0 0.0
2017-Sep-14 20:59N 51°09' E 003°47'0 0.0
2017-Sep-14 20:29N 51°09' E 003°47'0 0.0
2017-Sep-14 19:59N 51°09' E 003°47'0 0.0
2017-Sep-14 19:29N 51°09' E 003°47'0 0.0
2017-Sep-14 18:58N 51°09' E 003°47'0 0.0
2017-Sep-14 18:28N 51°09' E 003°47'0 0.0
2017-Sep-14 17:55N 51°09' E 003°47'0 0.0
2017-Sep-14 17:22N 51°09' E 003°47'0 0.0
2017-Sep-14 17:00N 51°09' E 003°47'0 0.0
2017-Sep-14 16:30N 51°09' E 003°47'0 0.0
2017-Sep-14 16:00N 51°09' E 003°47'0 0.0
2017-Sep-14 15:30N 51°09' E 003°47'0 0.0
2017-Sep-14 14:59N 51°09' E 003°47'0 0.0
2017-Sep-14 14:29N 51°09' E 003°47'0 0.0
2017-Sep-14 13:59N 51°09' E 003°47'0 0.0
2017-Sep-14 13:26N 51°09' E 003°47'0 0.0
2017-Sep-14 12:59N 51°09' E 003°47'0 0.0
2017-Sep-14 12:28N 51°09' E 003°47'0 0.0
2017-Sep-14 11:58N 51°09' E 003°47'0 0.0
2017-Sep-14 11:25N 51°09' E 003°47'0 0.0
2017-Sep-14 10:52N 51°09' E 003°47'0 0.0
2017-Sep-14 10:28N 51°09' E 003°47'0 0.0
2017-Sep-14 10:00N 51°09' E 003°47'0 0.0
2017-Sep-14 09:27N 51°09' E 003°47'0 0.0
2017-Sep-14 09:00N 51°09' E 003°47'0 0.0
2017-Sep-14 08:30N 51°09' E 003°47'0 0.0
2017-Sep-14 08:00N 51°09' E 003°47'0 0.0
2017-Sep-14 07:26N 51°09' E 003°47'0 0.0
2017-Sep-14 06:59N 51°09' E 003°47'0 0.0
2017-Sep-14 06:29N 51°09' E 003°47'0 0.0
2017-Sep-14 05:59N 51°09' E 003°47'0 0.0
2017-Sep-14 05:25N 51°09' E 003°47'0 0.0
2017-Sep-14 04:58N 51°09' E 003°47'0 0.0
2017-Sep-14 04:28N 51°09' E 003°47'0 0.0
2017-Sep-14 03:58N 51°09' E 003°47'0 0.0
2017-Sep-14 03:25N 51°09' E 003°47'0 0.0
2017-Sep-14 03:00N 51°09' E 003°47'0 0.0
2017-Sep-14 02:30N 51°09' E 003°47'0 0.0
2017-Sep-14 01:57N 51°09' E 003°47'0 0.0
2017-Sep-14 01:27N 51°09' E 003°47'0 0.0
2017-Sep-14 00:59N 51°09' E 003°47'0 0.0
2017-Sep-14 00:26N 51°09' E 003°47'0 0.0
2017-Sep-13 23:59N 51°09' E 003°47'0 0.0
2017-Sep-13 23:29N 51°09' E 003°47'0 0.0
2017-Sep-13 22:59N 51°09' E 003°47'0 0.0
2017-Sep-13 22:28N 51°09' E 003°47'0 0.0
2017-Sep-13 21:55N 51°09' E 003°47'0 0.0
2017-Sep-13 21:28N 51°09' E 003°47'0 0.0
2017-Sep-13 20:58N 51°09' E 003°47'0 0.0
2017-Sep-13 20:31N 51°09' E 003°47'0 0.0
2017-Sep-13 20:00N 51°09' E 003°47'0 0.0
2017-Sep-13 19:27N 51°09' E 003°47'0 0.0
2017-Sep-13 18:54N 51°09' E 003°47'0 0.0
2017-Sep-13 18:30N 51°09' E 003°47'0 0.0
2017-Sep-13 18:00N 51°09' E 003°47'0 0.0
2017-Sep-13 17:29N 51°09' E 003°47'0 0.0
2017-Sep-13 16:59N 51°09' E 003°47'0 0.0
2017-Sep-13 16:29N 51°09' E 003°47'0 0.0
2017-Sep-13 15:59N 51°09' E 003°47'0 0.0
2017-Sep-13 15:28N 51°09' E 003°47'0 0.0
2017-Sep-13 14:58N 51°09' E 003°47'0 0.0
2017-Sep-13 14:28N 51°09' E 003°47'0 0.0
2017-Sep-13 13:58N 51°09' E 003°47'0 0.0
2017-Sep-13 13:30N 51°09' E 003°47'0 0.0
2017-Sep-13 13:00N 51°09' E 003°47'0 0.0
2017-Sep-13 12:30N 51°09' E 003°47'0 0.0
2017-Sep-13 11:57N 51°09' E 003°47'0 0.0
2017-Sep-13 11:30N 51°09' E 003°47'0 0.0
2017-Sep-13 11:00N 51°09' E 003°47'0 0.1
2017-Sep-13 10:31N 51°09' E 003°47'1 1.2
2017-Sep-13 10:00N 51°10' E 003°47'0 0.0
2017-Sep-13 09:29N 51°10' E 003°47'0 0.0
2017-Sep-13 08:59N 51°10' E 003°47'0 0.0
2017-Sep-13 08:28N 51°10' E 003°47'0 0.0
2017-Sep-13 07:55N 51°10' E 003°47'0 0.0
2017-Sep-13 07:25N 51°10' E 003°47'0 0.0
2017-Sep-13 06:58N 51°10' E 003°47'0 0.0
2017-Sep-13 06:25N 51°10' E 003°47'0 0.0
2017-Sep-13 06:01N 51°10' E 003°47'0 0.0
2017-Sep-13 05:30N 51°10' E 003°47'0 0.0
2017-Sep-13 05:00N 51°10' E 003°47'0 0.0
2017-Sep-13 04:30N 51°10' E 003°47'0 0.0
2017-Sep-13 04:00N 51°10' E 003°47'0 0.0
2017-Sep-13 03:29N 51°10' E 003°47'0 0.0
2017-Sep-13 02:59N 51°10' E 003°47'0 0.0
2017-Sep-13 02:29N 51°10' E 003°47'0 0.0
2017-Sep-13 01:59N 51°10' E 003°47'0 0.0
2017-Sep-13 01:29N 51°10' E 003°47'0 0.0
2017-Sep-13 00:58N 51°10' E 003°47'0 0.0
2017-Sep-13 00:28N 51°10' E 003°47'0 0.0
2017-Sep-12 23:58N 51°10' E 003°47'0 0.0
2017-Sep-12 23:28N 51°10' E 003°47'0 0.0
2017-Sep-12 23:00N 51°10' E 003°47'0 0.0
2017-Sep-12 22:27N 51°10' E 003°47'0 0.0
2017-Sep-12 21:57N 51°10' E 003°47'0 0.0
2017-Sep-12 21:24N 51°10' E 003°47'0 0.0
2017-Sep-12 20:57N 51°10' E 003°47'0 0.0
2017-Sep-12 20:29N 51°10' E 003°47'0 0.0
2017-Sep-12 19:56N 51°10' E 003°47'0 0.0
2017-Sep-12 19:26N 51°10' E 003°47'0 0.0
2017-Sep-12 18:56N 51°10' E 003°47'0 0.0
2017-Sep-12 18:25N 51°10' E 003°47'0 0.0
2017-Sep-12 17:55N 51°10' E 003°47'0 0.0
2017-Sep-12 17:13N 51°10' E 003°47'0 0.0
2017-Sep-12 16:58N 51°10' E 003°47'0 0.0
2017-Sep-12 16:25N 51°10' E 003°47'0 0.0
2017-Sep-12 16:00N 51°10' E 003°47'0 0.0
2017-Sep-12 15:24N 51°10' E 003°47'0 0.0
2017-Sep-12 15:00N 51°10' E 003°47'0 0.0
2017-Sep-12 14:30N 51°10' E 003°47'0 0.0
2017-Sep-12 13:56N 51°10' E 003°47'0 0.0
2017-Sep-12 13:29N 51°10' E 003°47'0 0.0
2017-Sep-12 12:56N 51°10' E 003°47'0 0.0
2017-Sep-12 12:29N 51°10' E 003°47'0 0.0
2017-Sep-12 11:59N 51°10' E 003°47'0 0.0
2017-Sep-12 11:28N 51°10' E 003°47'0 0.0
2017-Sep-12 10:58N 51°10' E 003°47'0 0.0
2017-Sep-12 10:28N 51°10' E 003°47'0 0.0
2017-Sep-12 09:58N 51°10' E 003°47'0 0.0
2017-Sep-12 09:28N 51°10' E 003°47'0 0.0
2017-Sep-12 08:54N 51°10' E 003°47'0 0.0
2017-Sep-12 08:27N 51°10' E 003°47'0 0.0
2017-Sep-12 08:00N 51°10' E 003°47'0 0.0
2017-Sep-12 07:27N 51°10' E 003°47'0 0.0
2017-Sep-12 06:56N 51°10' E 003°47'0 0.0
2017-Sep-12 06:26N 51°10' E 003°47'0 0.0
2017-Sep-12 05:53N 51°10' E 003°47'0 0.0
2017-Sep-12 05:29N 51°10' E 003°47'0 0.0
2017-Sep-12 05:00N 51°10' E 003°47'2 4.2
2017-Sep-12 04:30N 51°12' E 003°48'4 7.6
2017-Sep-12 04:00N 51°16' E 003°50'3 6.8
2017-Sep-12 03:30N 51°19' E 003°50'1 2.2
2017-Sep-12 02:58N 51°20' E 003°49'1 2.4
2017-Sep-12 02:30N 51°21' E 003°48'  

Dump ship's entire track history